Phuket, Thailand

11:59 PM ICT on July 24, 2014 (GMT +0700)
Phuket International (VTSP) Elev 30 ft | 8.11 °N, 98.32 °E | Change Station

Current weather conditions updated 29 minutes ago

Mostly Cloudy
Mostly Cloudy
81 °F
Feels Like 85 °F
N
7
Wind Variable Wind from WNW

Tomorrow is forecast to be Cooler than today. Thunderstorms.

Today
High -- | Low -- °F
--% Chance of Precip.
Yesterday
High -- | Low -- °F
Precip. -- in
6:17 AM 6:48 PM
Waning Crescent, 5% visible
Pressure 29.86 in
Visibility 5.0 miles
Clouds Few 1800 ft
Scattered Clouds 12000 ft
Mostly Cloudy 30000 ft
Heat Index 85 °F
Dew Point 73 °F
Humidity 79%
Rainfall 0.00 in
Snow Depth Not available.
UV 0 out of 12
Pollen Not available.
Air Quality Not available.
Flu Activity Not available.
METAR VTSP 241630Z 29006KT 8000 FEW018 SCT120 BKN300 27/23 Q1011 A2985 NOSIG

More Conditions Fewer Conditions

Pressure 29.86 in
Visibility 5.0 miles
Clouds Few 1800 ft
Scattered Clouds 12000 ft
Mostly Cloudy 30000 ft
Heat Index 85 °F
Dew Point 73 °F
Humidity 79%
Rainfall 0.00 in
Snow Depth Not available.
UV 0 out of 12
Pollen Not available.
Air Quality Not available.
Flu Activity Not available.
METAR VTSP 241630Z 29006KT 8000 FEW018 SCT120 BKN300 27/23 Q1011 A2985 NOSIG

More Conditions Fewer Conditions

10-Day Weather Forecast

Almanac

Astronomy

Jul. 24, 2014 Rise Set
Actual Time 6:17 AM ICT 6:48 PM ICT
Civil Twilight 5:55 AM ICT 7:10 PM ICT
Nautical Twilight 5:29 AM ICT 7:36 PM ICT
Astronomical Twilight 5:02 AM ICT 8:03 PM ICT
Moon 3:56 AM ICT 4:43 PM ICT
Length of Visible Light 13h 15m
Length of Day
12h 30m
Tomorrow will be 0m 18s shorter.
Waning Crescent, 5% of the Moon is Illuminated
Today
Waning Crescent
Jul 26
New
Aug 3
First Quarter
Aug 10
Full
Aug 17
Last Quarter

Today's Extremes

Country Highs Country Lows

Community

WunderPhotos

Upload Photos

1,737,062 photos uploaded!

Nearby

Snow Depth

Not available.

Earthquake Activity

City Distance Mag. Time & Date
No recent earthquake activity has been reported nearby.
Minimum magnitude displayed is 2.5.

Coastal Water Temperatures

Place Temperature
No Stations Reporting

Nearby Weather Stations

Station Location Temp. Heat Index Dew Point Humidity Wind Precip. Elev Updated Type
Ao Chalong Yacht Club, Wichit 79.9 °F 85 °F 76 °F 87% North  at  0.0 mph 0.00 in / hr 20 ft 11:55 PM ICT Normal
Mig`s house, Phuket 80.1 °F 84 °F 75 °F 80% North  at  2.2 mph 0.00 in / hr 35 ft 11:55 PM ICT Normal
Promthep Cape, Phuket, Rawai 80.2 °F 85 °F 75 °F 83% NW  at  2.0 mph 0.00 in / hr 190 ft 11:59 PM ICT Rapid Fire

Show More Stations Show Fewer Stations